sensor_id;sensor_type;location;lat;lon;timestamp;temperature;humidity
51175;DHT22;37240;50.104;20.010;2023-12-20T00:03:05;11.70;54.70
51175;DHT22;37240;50.104;20.010;2023-12-20T00:08:05;11.60;54.70
51175;DHT22;37240;50.104;20.010;2023-12-20T00:13:06;11.60;55.00
51175;DHT22;37240;50.104;20.010;2023-12-20T00:18:07;11.60;55.20
51175;DHT22;37240;50.104;20.010;2023-12-20T00:23:07;11.60;55.50
51175;DHT22;37240;50.104;20.010;2023-12-20T00:28:08;11.50;55.50
51175;DHT22;37240;50.104;20.010;2023-12-20T00:33:08;11.50;55.70
51175;DHT22;37240;50.104;20.010;2023-12-20T00:38:09;11.50;55.90
51175;DHT22;37240;50.104;20.010;2023-12-20T00:43:09;11.40;55.80
51175;DHT22;37240;50.104;20.010;2023-12-20T00:48:10;11.40;55.70
51175;DHT22;37240;50.104;20.010;2023-12-20T00:53:11;11.40;55.30
51175;DHT22;37240;50.104;20.010;2023-12-20T00:58:11;11.50;54.80
51175;DHT22;37240;50.104;20.010;2023-12-20T01:03:12;11.40;54.80
51175;DHT22;37240;50.104;20.010;2023-12-20T01:08:12;11.40;54.30
51175;DHT22;37240;50.104;20.010;2023-12-20T01:13:16;11.30;54.40
51175;DHT22;37240;50.104;20.010;2023-12-20T01:18:16;11.50;53.80
51175;DHT22;37240;50.104;20.010;2023-12-20T01:23:17;11.50;53.60
51175;DHT22;37240;50.104;20.010;2023-12-20T01:28:17;11.50;53.50
51175;DHT22;37240;50.104;20.010;2023-12-20T01:33:18;11.50;53.30
51175;DHT22;37240;50.104;20.010;2023-12-20T01:38:18;11.50;53.30
51175;DHT22;37240;50.104;20.010;2023-12-20T01:43:19;11.60;53.50
51175;DHT22;37240;50.104;20.010;2023-12-20T01:48:20;11.60;53.40
51175;DHT22;37240;50.104;20.010;2023-12-20T01:53:21;11.60;53.10
51175;DHT22;37240;50.104;20.010;2023-12-20T01:58:24;11.60;52.90
51175;DHT22;37240;50.104;20.010;2023-12-20T02:03:26;11.60;52.70
51175;DHT22;37240;50.104;20.010;2023-12-20T02:08:26;11.60;52.60
51175;DHT22;37240;50.104;20.010;2023-12-20T02:13:27;11.60;52.30
51175;DHT22;37240;50.104;20.010;2023-12-20T02:18:27;11.60;52.00
51175;DHT22;37240;50.104;20.010;2023-12-20T02:23:28;11.60;52.10
51175;DHT22;37240;50.104;20.010;2023-12-20T02:28:29;11.60;51.70
51175;DHT22;37240;50.104;20.010;2023-12-20T02:33:30;11.50;51.80
51175;DHT22;37240;50.104;20.010;2023-12-20T02:38:31;11.50;51.60
51175;DHT22;37240;50.104;20.010;2023-12-20T02:43:31;11.50;52.00
51175;DHT22;37240;50.104;20.010;2023-12-20T02:48:32;11.40;52.00
51175;DHT22;37240;50.104;20.010;2023-12-20T02:53:32;11.40;52.10
51175;DHT22;37240;50.104;20.010;2023-12-20T02:58:33;11.40;52.00
51175;DHT22;37240;50.104;20.010;2023-12-20T03:03:33;11.40;52.20
51175;DHT22;37240;50.104;20.010;2023-12-20T03:08:34;11.30;52.70
51175;DHT22;37240;50.104;20.010;2023-12-20T03:13:34;11.20;52.40
51175;DHT22;37240;50.104;20.010;2023-12-20T03:18:35;11.20;52.00
51175;DHT22;37240;50.104;20.010;2023-12-20T03:23:35;11.20;52.30
51175;DHT22;37240;50.104;20.010;2023-12-20T03:28:36;11.20;52.20
51175;DHT22;37240;50.104;20.010;2023-12-20T03:33:37;11.20;52.30
51175;DHT22;37240;50.104;20.010;2023-12-20T03:38:37;11.30;52.10
51175;DHT22;37240;50.104;20.010;2023-12-20T03:43:38;11.30;52.20
51175;DHT22;37240;50.104;20.010;2023-12-20T03:48:38;11.40;52.20
51175;DHT22;37240;50.104;20.010;2023-12-20T03:53:39;11.40;52.50
51175;DHT22;37240;50.104;20.010;2023-12-20T03:58:39;11.40;52.50
51175;DHT22;37240;50.104;20.010;2023-12-20T04:03:40;11.40;53.10
51175;DHT22;37240;50.104;20.010;2023-12-20T04:08:40;11.40;53.30
51175;DHT22;37240;50.104;20.010;2023-12-20T04:13:41;11.40;53.00
51175;DHT22;37240;50.104;20.010;2023-12-20T04:18:41;11.40;52.50
51175;DHT22;37240;50.104;20.010;2023-12-20T04:23:42;11.40;52.60
51175;DHT22;37240;50.104;20.010;2023-12-20T04:28:43;11.50;52.50
51175;DHT22;37240;50.104;20.010;2023-12-20T04:33:43;11.40;52.40
51175;DHT22;37240;50.104;20.010;2023-12-20T04:38:44;11.40;52.70
51175;DHT22;37240;50.104;20.010;2023-12-20T04:43:44;11.40;52.90
51175;DHT22;37240;50.104;20.010;2023-12-20T04:48:45;11.30;53.00
51175;DHT22;37240;50.104;20.010;2023-12-20T04:53:45;11.20;54.00
51175;DHT22;37240;50.104;20.010;2023-12-20T04:58:46;11.20;54.60
51175;DHT22;37240;50.104;20.010;2023-12-20T05:03:46;11.20;55.30
51175;DHT22;37240;50.104;20.010;2023-12-20T05:08:47;11.20;57.10
51175;DHT22;37240;50.104;20.010;2023-12-20T05:13:47;11.10;58.40
51175;DHT22;37240;50.104;20.010;2023-12-20T05:18:48;11.00;60.20
51175;DHT22;37240;50.104;20.010;2023-12-20T05:23:49;11.00;62.50
51175;DHT22;37240;50.104;20.010;2023-12-20T05:28:49;11.00;65.50
51175;DHT22;37240;50.104;20.010;2023-12-20T05:33:50;10.90;68.10
51175;DHT22;37240;50.104;20.010;2023-12-20T05:38:50;10.90;70.60
51175;DHT22;37240;50.104;20.010;2023-12-20T05:43:51;10.90;72.60
51175;DHT22;37240;50.104;20.010;2023-12-20T05:48:52;10.80;74.80
51175;DHT22;37240;50.104;20.010;2023-12-20T05:53:52;10.80;76.50
51175;DHT22;37240;50.104;20.010;2023-12-20T05:58:53;10.70;78.10
51175;DHT22;37240;50.104;20.010;2023-12-20T06:03:53;10.60;79.60
51175;DHT22;37240;50.104;20.010;2023-12-20T06:08:54;10.50;81.40
51175;DHT22;37240;50.104;20.010;2023-12-20T06:13:54;10.40;83.20
51175;DHT22;37240;50.104;20.010;2023-12-20T06:18:55;10.20;84.90
51175;DHT22;37240;50.104;20.010;2023-12-20T06:23:55;10.00;87.00
51175;DHT22;37240;50.104;20.010;2023-12-20T06:28:56;10.00;88.80
51175;DHT22;37240;50.104;20.010;2023-12-20T06:33:56;9.90;89.80
51175;DHT22;37240;50.104;20.010;2023-12-20T06:38:57;10.00;90.40
51175;DHT22;37240;50.104;20.010;2023-12-20T06:43:57;10.00;90.80
51175;DHT22;37240;50.104;20.010;2023-12-20T06:48:58;9.90;91.40
51175;DHT22;37240;50.104;20.010;2023-12-20T06:53:58;9.80;92.20
51175;DHT22;37240;50.104;20.010;2023-12-20T06:58:59;9.80;92.70
51175;DHT22;37240;50.104;20.010;2023-12-20T07:03:59;9.80;93.00
51175;DHT22;37240;50.104;20.010;2023-12-20T07:09:00;9.80;93.00
51175;DHT22;37240;50.104;20.010;2023-12-20T07:14:00;9.80;93.60
51175;DHT22;37240;50.104;20.010;2023-12-20T07:19:01;9.70;93.90
51175;DHT22;37240;50.104;20.010;2023-12-20T07:24:02;9.70;94.10
51175;DHT22;37240;50.104;20.010;2023-12-20T07:29:02;9.60;94.40
51175;DHT22;37240;50.104;20.010;2023-12-20T07:34:03;9.50;94.60
51175;DHT22;37240;50.104;20.010;2023-12-20T07:39:03;9.50;94.90
51175;DHT22;37240;50.104;20.010;2023-12-20T07:44:04;9.50;94.90
51175;DHT22;37240;50.104;20.010;2023-12-20T07:49:05;9.60;95.10
51175;DHT22;37240;50.104;20.010;2023-12-20T07:54:06;9.60;95.30
51175;DHT22;37240;50.104;20.010;2023-12-20T07:59:06;9.70;95.30
51175;DHT22;37240;50.104;20.010;2023-12-20T08:04:07;9.70;95.30
51175;DHT22;37240;50.104;20.010;2023-12-20T08:09:07;9.70;95.50
51175;DHT22;37240;50.104;20.010;2023-12-20T08:14:08;9.60;96.00
51175;DHT22;37240;50.104;20.010;2023-12-20T08:19:08;9.50;95.90
51175;DHT22;37240;50.104;20.010;2023-12-20T08:24:09;9.50;95.40
51175;DHT22;37240;50.104;20.010;2023-12-20T08:29:09;9.40;96.00
51175;DHT22;37240;50.104;20.010;2023-12-20T08:34:10;9.50;96.00
51175;DHT22;37240;50.104;20.010;2023-12-20T08:39:10;9.40;96.10
51175;DHT22;37240;50.104;20.010;2023-12-20T08:44:11;9.40;96.20
51175;DHT22;37240;50.104;20.010;2023-12-20T08:49:11;9.30;96.30
51175;DHT22;37240;50.104;20.010;2023-12-20T08:54:12;9.30;96.40
51175;DHT22;37240;50.104;20.010;2023-12-20T08:59:13;9.20;96.80
51175;DHT22;37240;50.104;20.010;2023-12-20T09:04:13;9.30;97.00
51175;DHT22;37240;50.104;20.010;2023-12-20T09:09:14;9.30;97.20
51175;DHT22;37240;50.104;20.010;2023-12-20T09:14:14;9.20;97.10
51175;DHT22;37240;50.104;20.010;2023-12-20T09:19:15;9.30;97.40
51175;DHT22;37240;50.104;20.010;2023-12-20T09:24:15;9.20;97.40
51175;DHT22;37240;50.104;20.010;2023-12-20T09:29:16;9.20;97.40
51175;DHT22;37240;50.104;20.010;2023-12-20T09:34:17;9.20;97.70
51175;DHT22;37240;50.104;20.010;2023-12-20T09:39:18;9.20;97.80
51175;DHT22;37240;50.104;20.010;2023-12-20T09:44:19;9.20;97.80
51175;DHT22;37240;50.104;20.010;2023-12-20T09:49:20;9.30;97.90
51175;DHT22;37240;50.104;20.010;2023-12-20T09:54:22;9.20;98.00
51175;DHT22;37240;50.104;20.010;2023-12-20T09:59:22;9.20;98.00
51175;DHT22;37240;50.104;20.010;2023-12-20T10:04:23;9.10;98.10
51175;DHT22;37240;50.104;20.010;2023-12-20T10:09:24;9.10;98.20
51175;DHT22;37240;50.104;20.010;2023-12-20T10:14:24;9.00;98.10
51175;DHT22;37240;50.104;20.010;2023-12-20T10:19:25;9.00;98.30
51175;DHT22;37240;50.104;20.010;2023-12-20T10:24:28;9.00;98.40
51175;DHT22;37240;50.104;20.010;2023-12-20T10:29:40;9.10;98.30
51175;DHT22;37240;50.104;20.010;2023-12-20T10:34:40;9.00;98.30
51175;DHT22;37240;50.104;20.010;2023-12-20T10:39:42;9.00;98.30
51175;DHT22;37240;50.104;20.010;2023-12-20T10:44:43;9.00;98.10
51175;DHT22;37240;50.104;20.010;2023-12-20T10:49:45;8.90;98.40
51175;DHT22;37240;50.104;20.010;2023-12-20T10:54:45;8.90;98.30
51175;DHT22;37240;50.104;20.010;2023-12-20T10:59:48;8.90;98.40
51175;DHT22;37240;50.104;20.010;2023-12-20T11:15:46;8.90;99.00
51175;DHT22;37240;50.104;20.010;2023-12-20T11:20:48;8.90;99.00
51175;DHT22;37240;50.104;20.010;2023-12-20T11:25:52;8.90;99.10
51175;DHT22;37240;50.104;20.010;2023-12-20T11:31:01;8.90;99.10
51175;DHT22;37240;50.104;20.010;2023-12-20T11:36:02;8.90;99.40
51175;DHT22;37240;50.104;20.010;2023-12-20T11:41:05;8.90;99.70
51175;DHT22;37240;50.104;20.010;2023-12-20T11:46:08;9.00;99.70
51175;DHT22;37240;50.104;20.010;2023-12-20T11:51:12;9.10;99.80
51175;DHT22;37240;50.104;20.010;2023-12-20T11:56:13;9.10;99.90
51175;DHT22;37240;50.104;20.010;2023-12-20T12:01:13;9.00;99.90
51175;DHT22;37240;50.104;20.010;2023-12-20T12:06:14;9.10;99.70
51175;DHT22;37240;50.104;20.010;2023-12-20T12:11:14;9.10;99.90
51175;DHT22;37240;50.104;20.010;2023-12-20T12:16:19;9.10;99.60
51175;DHT22;37240;50.104;20.010;2023-12-20T12:21:20;9.00;99.70
51175;DHT22;37240;50.104;20.010;2023-12-20T12:26:21;9.10;99.80
51175;DHT22;37240;50.104;20.010;2023-12-20T12:31:25;9.20;99.80
51175;DHT22;37240;50.104;20.010;2023-12-20T12:36:25;9.10;99.60
51175;DHT22;37240;50.104;20.010;2023-12-20T12:41:26;9.10;99.90
51175;DHT22;37240;50.104;20.010;2023-12-20T12:46:26;9.10;99.50
51175;DHT22;37240;50.104;20.010;2023-12-20T12:51:27;9.20;99.40
51175;DHT22;37240;50.104;20.010;2023-12-20T12:56:27;9.20;99.50
51175;DHT22;37240;50.104;20.010;2023-12-20T13:01:28;9.10;99.60
51175;DHT22;37240;50.104;20.010;2023-12-20T13:06:29;9.10;99.90
51175;DHT22;37240;50.104;20.010;2023-12-20T13:11:30;9.10;99.90
51175;DHT22;37240;50.104;20.010;2023-12-20T13:16:30;9.10;99.90
51175;DHT22;37240;50.104;20.010;2023-12-20T13:21:31;9.10;99.90
51175;DHT22;37240;50.104;20.010;2023-12-20T13:26:32;9.10;99.90
51175;DHT22;37240;50.104;20.010;2023-12-20T13:31:32;9.20;99.70
51175;DHT22;37240;50.104;20.010;2023-12-20T13:36:33;9.10;99.70
51175;DHT22;37240;50.104;20.010;2023-12-20T13:41:33;9.20;99.70
51175;DHT22;37240;50.104;20.010;2023-12-20T13:46:34;9.20;99.40
51175;DHT22;37240;50.104;20.010;2023-12-20T13:51:34;9.20;99.30
51175;DHT22;37240;50.104;20.010;2023-12-20T13:56:35;9.20;99.20
51175;DHT22;37240;50.104;20.010;2023-12-20T14:01:35;9.20;98.90
51175;DHT22;37240;50.104;20.010;2023-12-20T14:06:36;9.20;99.00
51175;DHT22;37240;50.104;20.010;2023-12-20T14:11:37;9.10;98.80
51175;DHT22;37240;50.104;20.010;2023-12-20T14:16:37;9.20;98.70
51175;DHT22;37240;50.104;20.010;2023-12-20T14:21:38;9.20;98.40
51175;DHT22;37240;50.104;20.010;2023-12-20T14:26:38;9.20;98.40
51175;DHT22;37240;50.104;20.010;2023-12-20T14:31:39;9.30;98.30
51175;DHT22;37240;50.104;20.010;2023-12-20T14:36:39;9.30;98.00
51175;DHT22;37240;50.104;20.010;2023-12-20T14:41:40;9.30;98.00
51175;DHT22;37240;50.104;20.010;2023-12-20T14:46:40;9.30;97.90
51175;DHT22;37240;50.104;20.010;2023-12-20T14:51:44;9.30;98.00
51175;DHT22;37240;50.104;20.010;2023-12-20T14:56:44;9.20;98.30
51175;DHT22;37240;50.104;20.010;2023-12-20T15:01:45;9.30;98.10
51175;DHT22;37240;50.104;20.010;2023-12-20T15:06:45;9.40;98.10
51175;DHT22;37240;50.104;20.010;2023-12-20T15:11:46;9.40;98.00
51175;DHT22;37240;50.104;20.010;2023-12-20T15:16:46;9.40;97.90
51175;DHT22;37240;50.104;20.010;2023-12-20T15:21:47;9.40;97.80
51175;DHT22;37240;50.104;20.010;2023-12-20T15:26:47;9.30;98.10
51175;DHT22;37240;50.104;20.010;2023-12-20T15:31:48;9.30;98.20
51175;DHT22;37240;50.104;20.010;2023-12-20T15:36:48;9.30;98.10
51175;DHT22;37240;50.104;20.010;2023-12-20T15:41:49;9.20;98.40
51175;DHT22;37240;50.104;20.010;2023-12-20T15:46:51;9.10;98.40
51175;DHT22;37240;50.104;20.010;2023-12-20T15:51:51;9.10;99.40
51175;DHT22;37240;50.104;20.010;2023-12-20T15:56:52;9.00;98.90
51175;DHT22;37240;50.104;20.010;2023-12-20T16:01:52;9.00;98.70
51175;DHT22;37240;50.104;20.010;2023-12-20T16:06:53;8.70;98.90
51175;DHT22;37240;50.104;20.010;2023-12-20T16:11:54;8.70;99.20
51175;DHT22;37240;50.104;20.010;2023-12-20T16:16:55;8.80;99.10
51175;DHT22;37240;50.104;20.010;2023-12-20T16:21:55;8.70;99.10
51175;DHT22;37240;50.104;20.010;2023-12-20T16:26:56;8.60;99.10
51175;DHT22;37240;50.104;20.010;2023-12-20T16:31:56;8.50;99.20
51175;DHT22;37240;50.104;20.010;2023-12-20T16:36:57;8.40;99.40
51175;DHT22;37240;50.104;20.010;2023-12-20T16:41:57;8.40;99.90
51175;DHT22;37240;50.104;20.010;2023-12-20T16:46:58;8.50;99.90
51175;DHT22;37240;50.104;20.010;2023-12-20T16:51:58;8.50;99.90
51175;DHT22;37240;50.104;20.010;2023-12-20T16:56:59;8.50;99.90
51175;DHT22;37240;50.104;20.010;2023-12-20T17:01:59;8.50;99.50
51175;DHT22;37240;50.104;20.010;2023-12-20T17:07:00;8.50;98.90
51175;DHT22;37240;50.104;20.010;2023-12-20T17:12:00;8.30;98.90
51175;DHT22;37240;50.104;20.010;2023-12-20T17:17:01;8.30;99.00
51175;DHT22;37240;50.104;20.010;2023-12-20T17:22:01;8.20;99.10
51175;DHT22;37240;50.104;20.010;2023-12-20T17:27:02;8.10;99.10
51175;DHT22;37240;50.104;20.010;2023-12-20T17:32:03;8.10;99.00
51175;DHT22;37240;50.104;20.010;2023-12-20T17:37:04;8.10;98.70
51175;DHT22;37240;50.104;20.010;2023-12-20T17:42:07;8.20;98.60
51175;DHT22;37240;50.104;20.010;2023-12-20T17:47:08;8.10;98.50
51175;DHT22;37240;50.104;20.010;2023-12-20T17:52:08;8.00;98.40
51175;DHT22;37240;50.104;20.010;2023-12-20T17:57:09;8.00;98.30
51175;DHT22;37240;50.104;20.010;2023-12-20T18:02:10;8.00;98.30
51175;DHT22;37240;50.104;20.010;2023-12-20T18:07:11;8.00;98.20
51175;DHT22;37240;50.104;20.010;2023-12-20T18:12:11;7.90;98.50
51175;DHT22;37240;50.104;20.010;2023-12-20T18:17:12;7.90;98.40
51175;DHT22;37240;50.104;20.010;2023-12-20T18:22:12;7.90;98.00
51175;DHT22;37240;50.104;20.010;2023-12-20T18:27:14;7.90;98.20
51175;DHT22;37240;50.104;20.010;2023-12-20T18:32:15;7.90;97.80
51175;DHT22;37240;50.104;20.010;2023-12-20T18:37:15;7.90;97.60
51175;DHT22;37240;50.104;20.010;2023-12-20T18:42:16;7.90;97.50
51175;DHT22;37240;50.104;20.010;2023-12-20T18:47:16;7.90;97.70
51175;DHT22;37240;50.104;20.010;2023-12-20T18:52:17;8.00;97.60
51175;DHT22;37240;50.104;20.010;2023-12-20T18:57:17;8.10;97.30
51175;DHT22;37240;50.104;20.010;2023-12-20T19:02:18;8.10;97.40
51175;DHT22;37240;50.104;20.010;2023-12-20T19:07:18;8.00;97.20
51175;DHT22;37240;50.104;20.010;2023-12-20T19:12:19;7.90;96.80
51175;DHT22;37240;50.104;20.010;2023-12-20T19:17:19;7.90;96.60
51175;DHT22;37240;50.104;20.010;2023-12-20T19:22:20;8.00;96.50
51175;DHT22;37240;50.104;20.010;2023-12-20T19:27:20;8.10;96.00
51175;DHT22;37240;50.104;20.010;2023-12-20T19:32:21;8.20;95.90
51175;DHT22;37240;50.104;20.010;2023-12-20T19:37:22;8.10;95.60
51175;DHT22;37240;50.104;20.010;2023-12-20T19:42:22;8.10;96.40
51175;DHT22;37240;50.104;20.010;2023-12-20T19:47:23;8.10;95.10
51175;DHT22;37240;50.104;20.010;2023-12-20T19:52:24;8.30;96.70
51175;DHT22;37240;50.104;20.010;2023-12-20T19:57:24;8.30;97.00
51175;DHT22;37240;50.104;20.010;2023-12-20T20:02:25;8.50;97.30
51175;DHT22;37240;50.104;20.010;2023-12-20T20:07:25;8.60;95.90
51175;DHT22;37240;50.104;20.010;2023-12-20T20:12:26;8.70;95.10
51175;DHT22;37240;50.104;20.010;2023-12-20T20:17:26;8.70;94.80
51175;DHT22;37240;50.104;20.010;2023-12-20T20:22:27;8.70;94.80
51175;DHT22;37240;50.104;20.010;2023-12-20T20:27:28;8.70;94.60
51175;DHT22;37240;50.104;20.010;2023-12-20T20:32:28;8.70;94.80
51175;DHT22;37240;50.104;20.010;2023-12-20T20:37:29;8.80;94.10
51175;DHT22;37240;50.104;20.010;2023-12-20T20:42:29;8.70;93.80
51175;DHT22;37240;50.104;20.010;2023-12-20T20:47:30;8.60;93.50
51175;DHT22;37240;50.104;20.010;2023-12-20T20:52:30;8.60;93.30
51175;DHT22;37240;50.104;20.010;2023-12-20T20:57:32;8.50;93.40
51175;DHT22;37240;50.104;20.010;2023-12-20T21:02:33;8.40;93.50
51175;DHT22;37240;50.104;20.010;2023-12-20T21:07:33;8.30;93.70
51175;DHT22;37240;50.104;20.010;2023-12-20T21:12:34;8.20;94.00
51175;DHT22;37240;50.104;20.010;2023-12-20T21:17:34;8.20;94.20
51175;DHT22;37240;50.104;20.010;2023-12-20T21:22:35;8.10;94.20
51175;DHT22;37240;50.104;20.010;2023-12-20T21:27:36;8.10;94.10
51175;DHT22;37240;50.104;20.010;2023-12-20T21:32:37;8.00;94.20
51175;DHT22;37240;50.104;20.010;2023-12-20T21:37:38;8.10;94.20
51175;DHT22;37240;50.104;20.010;2023-12-20T21:42:38;8.00;94.20
51175;DHT22;37240;50.104;20.010;2023-12-20T21:47:39;8.00;94.20
51175;DHT22;37240;50.104;20.010;2023-12-20T21:52:39;7.80;94.40
51175;DHT22;37240;50.104;20.010;2023-12-20T21:57:40;7.90;94.40
51175;DHT22;37240;50.104;20.010;2023-12-20T22:02:40;7.70;94.50
51175;DHT22;37240;50.104;20.010;2023-12-20T22:07:41;7.80;94.60
51175;DHT22;37240;50.104;20.010;2023-12-20T22:12:41;7.80;94.50
51175;DHT22;37240;50.104;20.010;2023-12-20T22:17:42;7.80;94.50
51175;DHT22;37240;50.104;20.010;2023-12-20T22:22:43;7.80;94.50
51175;DHT22;37240;50.104;20.010;2023-12-20T22:27:43;7.80;94.50
51175;DHT22;37240;50.104;20.010;2023-12-20T22:32:44;7.90;94.50
51175;DHT22;37240;50.104;20.010;2023-12-20T22:37:44;7.90;94.50
51175;DHT22;37240;50.104;20.010;2023-12-20T22:42:45;7.80;94.70
51175;DHT22;37240;50.104;20.010;2023-12-20T22:47:45;7.80;94.60
51175;DHT22;37240;50.104;20.010;2023-12-20T22:52:46;7.80;94.60
51175;DHT22;37240;50.104;20.010;2023-12-20T22:57:46;7.90;94.70
51175;DHT22;37240;50.104;20.010;2023-12-20T23:02:47;7.90;94.70
51175;DHT22;37240;50.104;20.010;2023-12-20T23:07:47;7.80;94.90
51175;DHT22;37240;50.104;20.010;2023-12-20T23:12:48;7.90;94.90
51175;DHT22;37240;50.104;20.010;2023-12-20T23:17:49;7.90;94.80
51175;DHT22;37240;50.104;20.010;2023-12-20T23:22:49;8.00;94.60
51175;DHT22;37240;50.104;20.010;2023-12-20T23:27:50;8.10;94.60
51175;DHT22;37240;50.104;20.010;2023-12-20T23:32:50;8.10;94.40
51175;DHT22;37240;50.104;20.010;2023-12-20T23:37:51;8.20;94.40
51175;DHT22;37240;50.104;20.010;2023-12-20T23:42:51;8.20;94.40
51175;DHT22;37240;50.104;20.010;2023-12-20T23:47:52;8.10;94.50
51175;DHT22;37240;50.104;20.010;2023-12-20T23:52:52;8.10;94.40
51175;DHT22;37240;50.104;20.010;2023-12-20T23:57:53;8.00;94.70
